WIF855 ENTC-ENBO

Flight info

Callsign WIF855
Flight time 0h 46m
Altitude 16000
Route AMIMO DCT GEPTU
Aircraft DH8C/M-SDFGR/S

Departure

Time 2026-04-27 15:57
Airport Tromsø Airport (ENTC)

Arrival

Time 2026-04-27 16:44
Airport Bodø Airport (ENBO)
Time Latitude Longitude Altitude Speed Heading
2026-04-27 15:51 69.67931 18.90891 30 ft 0 kts 283°
2026-04-27 15:52 69.67930 18.90902 30 ft 2 kts 283°
2026-04-27 15:52 69.67926 18.90943 30 ft 2 kts 283°
2026-04-27 15:53 69.67923 18.90983 31 ft 2 kts 283°
2026-04-27 15:53 69.67920 18.91024 31 ft 2 kts 283°
2026-04-27 15:53 69.67916 18.91065 31 ft 2 kts 283°
2026-04-27 15:53 69.67913 18.91107 31 ft 2 kts 283°
2026-04-27 15:54 69.67910 18.91148 31 ft 2 kts 283°
2026-04-27 15:54 69.67910 18.91146 31 ft 2 kts 285°
2026-04-27 15:54 69.67924 18.91110 31 ft 11 kts 327°
2026-04-27 15:54 69.68047 18.91220 31 ft 21 kts 26°
2026-04-27 15:55 69.68141 18.91340 31 ft 22 kts 20°
2026-04-27 15:55 69.68306 18.91455 27 ft 26 kts
2026-04-27 15:55 69.68546 18.91563 21 ft 27 kts 12°
2026-04-27 15:55 69.68727 18.91703 16 ft 22 kts 31°
2026-04-27 15:56 69.68763 18.91906 16 ft 11 kts 110°
2026-04-27 15:56 69.68739 18.92060 18 ft 9 kts 132°
2026-04-27 15:56 69.68708 18.92106 18 ft 1 kts 179°
2026-04-27 15:56 69.68332 18.91893 27 ft 96 kts 196°
2026-04-27 15:57 69.67541 18.91239 153 ft 137 kts 198°
2026-04-27 15:57 69.66553 18.90631 526 ft 152 kts 207°
2026-04-27 15:57 69.65556 18.89671 1068 ft 153 kts 205°
2026-04-27 15:57 69.64482 18.88637 1235 ft 178 kts 206°
2026-04-27 15:58 69.63208 18.87666 1389 ft 195 kts 197°
2026-04-27 15:58 69.61916 18.86944 2147 ft 182 kts 198°
2026-04-27 15:58 69.60681 18.86183 2688 ft 183 kts 201°
2026-04-27 15:58 69.59418 18.85314 3104 ft 189 kts 201°
2026-04-27 15:59 69.58140 18.84500 3666 ft 186 kts 201°
2026-04-27 15:59 69.56925 18.83372 4188 ft 183 kts 221°
2026-04-27 15:59 69.55831 18.81380 4616 ft 188 kts 219°
2026-04-27 15:59 69.54683 18.79759 5310 ft 180 kts 215°
2026-04-27 16:00 69.53574 18.78180 5900 ft 179 kts 219°
2026-04-27 16:00 69.52451 18.76485 6326 ft 187 kts 217°
2026-04-27 16:00 69.51301 18.74785 6938 ft 183 kts 217°
2026-04-27 16:00 69.50189 18.73176 7636 ft 175 kts 218°
2026-04-27 16:01 69.49101 18.71564 8084 ft 179 kts 218°
2026-04-27 16:01 69.48021 18.69806 8428 ft 178 kts 219°
2026-04-27 16:01 69.46929 18.68274 9121 ft 172 kts 214°
2026-04-27 16:01 69.45861 18.66849 9748 ft 170 kts 218°
2026-04-27 16:02 69.44793 18.65232 10263 ft 176 kts 217°
2026-04-27 16:02 69.43713 18.63697 10891 ft 170 kts 218°
2026-04-27 16:02 69.42663 18.62150 11429 ft 173 kts 218°
2026-04-27 16:02 69.41588 18.60572 11899 ft 180 kts 217°
2026-04-27 16:03 69.40459 18.58876 12317 ft 189 kts 218°
2026-04-27 16:03 69.39271 18.57078 12728 ft 198 kts 217°
2026-04-27 16:03 69.38027 18.55257 13188 ft 204 kts 217°
2026-04-27 16:03 69.36736 18.53349 13680 ft 209 kts 217°
2026-04-27 16:04 69.35446 18.51463 14164 ft 214 kts 216°
2026-04-27 16:04 69.34116 18.49517 14608 ft 217 kts 217°
2026-04-27 16:04 69.32755 18.47541 15037 ft 222 kts 214°
2026-04-27 16:04 69.31322 18.45770 15460 ft 228 kts 211°
2026-04-27 16:05 69.29842 18.44031 15920 ft 232 kts 212°
2026-04-27 16:05 69.28334 18.42095 16166 ft 245 kts 213°
2026-04-27 16:05 69.27060 18.40463 16291 ft 256 kts 212°
2026-04-27 16:05 69.26222 18.39425 16453 ft 258 kts 212°
2026-04-27 16:06 69.24566 18.37413 16853 ft 258 kts 212°
2026-04-27 16:06 69.22911 18.35362 17198 ft 262 kts 212°
2026-04-27 16:06 69.21212 18.33222 17329 ft 274 kts 212°
2026-04-27 16:06 69.19438 18.31027 17425 ft 283 kts 212°
2026-04-27 16:07 69.17619 18.28800 17614 ft 287 kts 212°
2026-04-27 16:07 69.15779 18.26537 17801 ft 291 kts 212°
2026-04-27 16:07 69.13905 18.24219 17845 ft 298 kts 212°
2026-04-27 16:07 69.11979 18.21849 17814 ft 305 kts 211°
2026-04-27 16:08 69.10014 18.19451 17786 ft 311 kts 211°
2026-04-27 16:08 69.08019 18.17022 17748 ft 314 kts 211°
2026-04-27 16:08 69.06005 18.14567 17705 ft 318 kts 211°
2026-04-27 16:08 69.03970 18.12097 17642 ft 320 kts 211°
2026-04-27 16:09 69.01928 18.09626 17568 ft 321 kts 211°
2026-04-27 16:09 68.97806 18.04651 17386 ft 324 kts 211°
2026-04-27 16:09 68.95730 18.02141 17272 ft 325 kts 211°
2026-04-27 16:10 68.91598 17.97200 17007 ft 326 kts 211°
2026-04-27 16:10 68.87564 17.91583 16805 ft 323 kts 220°
2026-04-27 16:11 68.85619 17.88402 16622 ft 327 kts 216°
2026-04-27 16:11 68.81608 17.82405 16321 ft 327 kts 217°
2026-04-27 16:12 68.77663 17.76205 16000 ft 326 kts 216°
2026-04-27 16:12 68.75685 17.73247 15996 ft 321 kts 216°
2026-04-27 16:12 68.71816 17.67275 15988 ft 316 kts 217°
2026-04-27 16:13 68.69892 17.64364 15982 ft 314 kts 216°
2026-04-27 16:13 68.66088 17.58580 15986 ft 312 kts 217°
2026-04-27 16:13 68.64191 17.55687 15985 ft 312 kts 217°
2026-04-27 16:14 68.60472 17.50028 14960 ft 307 kts 213°
2026-04-27 16:14 68.56802 17.44529 15063 ft 299 kts 212°
2026-04-27 16:15 68.53138 17.39017 15984 ft 308 kts 217°
2026-04-27 16:15 68.49371 17.33359 15981 ft 310 kts 217°
2026-04-27 16:16 68.45594 17.27783 16008 ft 309 kts 217°
2026-04-27 16:16 68.41813 17.22076 16001 ft 311 kts 216°
2026-04-27 16:17 68.38002 17.16453 16009 ft 312 kts 217°
2026-04-27 16:17 68.34181 17.10808 16010 ft 313 kts 216°
2026-04-27 16:18 68.30343 17.05185 16006 ft 314 kts 217°
2026-04-27 16:18 68.26489 16.99511 16009 ft 316 kts 217°
2026-04-27 16:19 68.24551 16.96679 16014 ft 317 kts 217°
2026-04-27 16:19 68.22605 16.93864 16016 ft 318 kts 217°
2026-04-27 16:20 68.16777 16.85381 16011 ft 320 kts 216°
2026-04-27 16:20 68.14818 16.82552 16017 ft 319 kts 217°
2026-04-27 16:20 68.10892 16.76899 16012 ft 321 kts 216°
2026-04-27 16:21 68.08928 16.74074 16016 ft 320 kts 217°
2026-04-27 16:21 68.03038 16.65628 16015 ft 320 kts 216°
2026-04-27 16:22 68.01076 16.62825 15979 ft 319 kts 217°
2026-04-27 16:22 67.97252 16.57367 15136 ft 305 kts 216°
2026-04-27 16:22 67.95389 16.54755 14726 ft 300 kts 216°
2026-04-27 16:23 67.93567 16.52161 14321 ft 295 kts 217°
2026-04-27 16:23 67.89955 16.47030 13134 ft 294 kts 216°
2026-04-27 16:23 67.88155 16.44507 12548 ft 291 kts 216°
2026-04-27 16:24 67.86513 16.41570 12092 ft 278 kts 232°
2026-04-27 16:24 67.83629 16.34810 10935 ft 277 kts 225°
2026-04-27 16:25 67.80715 16.28532 10055 ft 263 kts 228°
2026-04-27 16:25 67.78070 16.22815 9986 ft 229 kts 227°
2026-04-27 16:26 67.75705 16.17694 9868 ft 214 kts 228°
2026-04-27 16:26 67.73452 16.12694 9747 ft 208 kts 228°
2026-04-27 16:27 67.71243 16.07935 9626 ft 202 kts 229°
2026-04-27 16:27 67.68048 16.00891 9147 ft 208 kts 227°
2026-04-27 16:28 67.65730 15.95881 8361 ft 222 kts 228°
2026-04-27 16:28 67.63276 15.90511 7364 ft 234 kts 227°
2026-04-27 16:29 67.59464 15.82355 6105 ft 227 kts 226°
2026-04-27 16:30 67.57176 15.77458 6003 ft 205 kts 227°
2026-04-27 16:30 67.54991 15.72801 5816 ft 201 kts 228°
2026-04-27 16:31 67.51788 15.65973 5152 ft 197 kts 224°
2026-04-27 16:31 67.49680 15.61478 4969 ft 194 kts 224°
2026-04-27 16:32 67.47634 15.57148 4958 ft 185 kts 224°
2026-04-27 16:32 67.46641 15.55049 4939 ft 183 kts 224°
2026-04-27 16:33 67.44640 15.50796 4778 ft 187 kts 224°
2026-04-27 16:33 67.43633 15.48664 4713 ft 187 kts 224°
2026-04-27 16:33 67.42624 15.46537 4650 ft 186 kts 224°
2026-04-27 16:33 67.41616 15.44395 4599 ft 188 kts 224°
2026-04-27 16:34 67.40601 15.42258 4546 ft 187 kts 224°
2026-04-27 16:34 67.39583 15.40114 4368 ft 193 kts 224°
2026-04-27 16:34 67.38514 15.37836 4089 ft 201 kts 224°
2026-04-27 16:34 67.37437 15.35580 4022 ft 196 kts 224°
2026-04-27 16:35 67.36386 15.33388 3990 ft 192 kts 223°
2026-04-27 16:35 67.35365 15.31220 3989 ft 188 kts 227°
2026-04-27 16:35 67.33482 15.26438 3743 ft 191 kts 230°
2026-04-27 16:36 67.32542 15.23990 3620 ft 192 kts 230°
2026-04-27 16:36 67.31599 15.21543 3538 ft 190 kts 230°
2026-04-27 16:36 67.30669 15.19144 3483 ft 188 kts 230°
2026-04-27 16:36 67.29768 15.16754 3482 ft 183 kts 232°
2026-04-27 16:37 67.28915 15.14332 3475 ft 181 kts 234°
2026-04-27 16:37 67.28282 15.11591 3488 ft 177 kts 255°
2026-04-27 16:37 67.27999 15.08513 3493 ft 175 kts 273°
2026-04-27 16:37 67.28044 15.05362 3459 ft 176 kts 274°
2026-04-27 16:38 67.28009 15.02227 3475 ft 174 kts 273°
2026-04-27 16:38 67.28004 14.99112 3471 ft 173 kts 274°
2026-04-27 16:38 67.27976 14.95993 3472 ft 173 kts 272°
2026-04-27 16:38 67.27941 14.92892 3475 ft 172 kts 273°
2026-04-27 16:39 67.27907 14.89795 3476 ft 172 kts 272°
2026-04-27 16:39 67.27871 14.86708 3478 ft 172 kts 273°
2026-04-27 16:39 67.27839 14.83620 3478 ft 172 kts 272°
2026-04-27 16:39 67.27803 14.80538 3480 ft 171 kts 272°
2026-04-27 16:40 67.27772 14.77411 3332 ft 180 kts 273°
2026-04-27 16:40 67.27753 14.74082 3080 ft 189 kts 274°
2026-04-27 16:40 67.27730 14.70761 2787 ft 179 kts 273°
2026-04-27 16:40 67.27692 14.67653 2488 ft 167 kts 272°
2026-04-27 16:41 67.27647 14.64732 2209 ft 159 kts 272°
2026-04-27 16:41 67.27607 14.61974 1957 ft 153 kts 272°
2026-04-27 16:41 67.27573 14.59243 1656 ft 151 kts 272°
2026-04-27 16:41 67.27532 14.56487 1344 ft 151 kts 271°
2026-04-27 16:42 67.27485 14.53841 1093 ft 147 kts 273°
2026-04-27 16:42 67.27464 14.52091 992 ft 141 kts 272°
2026-04-27 16:42 67.27422 14.48797 694 ft 141 kts 272°
2026-04-27 16:42 67.27386 14.46263 525 ft 138 kts 272°
2026-04-27 16:43 67.27370 14.44603 435 ft 135 kts 273°
2026-04-27 16:43 67.27339 14.42198 244 ft 134 kts 272°
2026-04-27 16:43 67.27210 14.39882 66 ft 124 kts 259°
2026-04-27 16:43 67.27070 14.38238 44 ft 63 kts 260°
2026-04-27 16:44 67.26981 14.37255 39 ft 53 kts 255°
2026-04-27 16:44 67.26936 14.36564 39 ft 20 kts 304°
2026-04-27 16:44 67.27047 14.36455 39 ft 18 kts 342°
2026-04-27 16:44 67.27154 14.36494 39 ft 15 kts 54°
2026-04-27 16:45 67.27179 14.36579 40 ft 0 kts 55°